createdAt,value
2023-03-23T15:58:34.734Z,11.20
2023-03-23T16:03:45.416Z,11.34
2023-03-23T16:08:54.047Z,11.37
2023-03-23T16:13:59.275Z,11.94
2023-03-23T16:19:05.078Z,12.62
2023-03-23T16:24:09.553Z,13.36
2023-03-23T16:29:28.330Z,13.73
2023-03-23T16:34:39.509Z,14.24
2023-03-23T16:39:43.214Z,14.27
2023-03-23T16:44:46.875Z,14.04
2023-03-23T16:49:52.307Z,14.05
2023-03-23T16:54:55.991Z,13.90
2023-03-23T16:59:59.617Z,13.70
2023-03-23T17:05:05.492Z,13.35
2023-03-23T17:10:10.934Z,13.83
2023-03-23T17:15:14.673Z,13.94
2023-03-23T17:20:20.422Z,14.91
2023-03-23T17:25:24.078Z,14.82
2023-03-23T17:30:28.466Z,14.28
2023-03-23T17:35:33.755Z,13.85
2023-03-23T17:40:37.470Z,13.49
2023-03-23T17:45:44.278Z,13.74
2023-03-23T17:50:54.687Z,14.19
2023-03-23T17:55:59.248Z,14.42
2023-03-23T18:01:03.241Z,14.04
2023-03-23T18:06:10.039Z,14.65
2023-03-23T18:11:13.696Z,15.35
2023-03-23T18:16:17.670Z,15.03
2023-03-23T18:21:23.292Z,15.18
2023-03-23T18:26:27.024Z,14.94
2023-03-23T18:31:31.053Z,14.93
2023-03-23T18:36:36.644Z,15.09
2023-03-23T18:41:40.341Z,15.25
2023-03-23T18:46:43.942Z,15.78
2023-03-23T18:51:49.220Z,15.74
2023-03-23T18:56:53.034Z,15.56
2023-03-23T19:01:56.768Z,15.50
2023-03-23T19:07:02.590Z,15.88
2023-03-23T19:12:06.576Z,16.45
2023-03-23T19:17:10.716Z,16.85
2023-03-23T19:22:16.052Z,17.25
2023-03-23T19:27:19.698Z,17.16
2023-03-23T19:32:23.457Z,16.22
2023-03-23T19:37:34.379Z,16.56
2023-03-23T19:42:40.261Z,16.66
2023-03-23T19:47:44.830Z,16.96
2023-03-23T19:52:51.238Z,16.89
2023-03-23T19:57:55.263Z,17.35
2023-03-23T20:02:59.004Z,17.53
2023-03-23T20:08:04.918Z,17.45
2023-03-23T20:13:10.933Z,17.43
2023-03-23T20:18:14.676Z,17.27
2023-03-23T20:23:20.306Z,17.32
2023-03-23T20:28:23.975Z,17.56
2023-03-23T20:33:27.665Z,17.72
2023-03-23T20:38:33.290Z,17.69
2023-03-23T20:43:36.971Z,17.80
2023-03-23T20:48:41.013Z,17.77
2023-03-23T20:53:48.537Z,17.52
2023-03-23T20:58:52.257Z,17.67
2023-03-23T21:03:55.911Z,17.61
2023-03-23T21:09:01.220Z,17.67
2023-03-23T21:14:05.767Z,17.42
2023-03-23T21:19:09.605Z,16.97
2023-03-23T21:24:15.034Z,16.84
2023-03-23T21:29:18.709Z,16.78
2023-03-23T21:34:22.379Z,16.28
2023-03-23T21:39:28.855Z,15.92
2023-03-23T21:44:32.542Z,15.84
2023-03-23T21:49:36.370Z,16.12
2023-03-23T21:54:46.197Z,15.71
2023-03-23T21:59:49.824Z,15.83
2023-03-23T22:04:57.072Z,15.72
2023-03-23T22:10:02.438Z,15.44
2023-03-23T22:15:07.536Z,15.38
2023-03-23T22:20:14.580Z,15.37
2023-03-23T22:25:20.246Z,15.19
2023-03-23T22:30:24.050Z,15.20
2023-03-23T22:35:27.787Z,15.35
2023-03-23T22:40:33.418Z,15.40
2023-03-23T22:45:37.287Z,15.46
2023-03-23T22:50:40.976Z,15.41
2023-03-23T22:55:47.481Z,15.28
2023-03-23T23:00:55.611Z,15.28
2023-03-23T23:06:00.296Z,15.19
2023-03-23T23:11:07.794Z,15.54
2023-03-23T23:16:12.582Z,15.36
2023-03-23T23:21:18.066Z,15.56
2023-03-23T23:26:24.048Z,15.12
2023-03-23T23:31:27.816Z,15.00
2023-03-23T23:36:32.908Z,15.39
2023-03-23T23:41:38.796Z,15.52
2023-03-23T23:46:41.713Z,15.38
2023-03-23T23:51:45.393Z,15.22
2023-03-23T23:56:50.780Z,14.03
